Time;durP1;ratioP1;P1;durP2;ratioP2;P2;SDS_P1;SDS_P2;PMS_P1;PMS_P2;Temp;Humidity;BMP_temperature;BMP_pressure;BME280_temperature;BME280_humidity;BME280_pressure;Samples;Min_cycle;Max_cycle;Signal;HPM_P1;HPM_P2
2021/08/27 00:02:02;;;;;;;9.60;3.80;;;;;;;;;;5056508;28;20156;-57
2021/08/27 00:04:28;;;;;;;6.70;3.65;;;;;;;;;;5056103;28;20049;-57
2021/08/27 00:06:54;;;;;;;6.97;3.92;;;;;;;;;;5088150;28;20064;-57
2021/08/27 00:09:20;;;;;;;12.35;3.88;;;;;;;;;;5055949;28;20051;-58
2021/08/27 00:11:46;;;;;;;7.38;3.83;;;;;;;;;;5056000;28;20104;-58
2021/08/27 00:25:17;;;;;;;8.48;4.25;;;;;;;;;;5117819;27;21013;-57
2021/08/27 00:27:46;;;;;;;7.63;4.15;;;;;;;;;;5109239;27;20044;-57
2021/08/27 00:30:12;;;;;;;6.40;3.90;;;;;;;;;;5112121;27;20039;-57
2021/08/27 00:32:38;;;;;;;8.57;3.92;;;;;;;;;;5108323;27;20090;-58
2021/08/27 00:35:05;;;;;;;6.03;3.35;;;;;;;;;;5109828;27;20434;-58
2021/08/27 00:37:31;;;;;;;8.40;4.00;;;;;;;;;;5110558;27;20055;-57
2021/08/27 00:39:57;;;;;;;6.65;3.42;;;;;;;;;;5111543;27;20027;-57
2021/08/27 00:42:23;;;;;;;7.88;3.45;;;;;;;;;;5111454;27;20120;-57
2021/08/27 00:44:49;;;;;;;6.45;3.83;;;;;;;;;;5110332;27;20099;-57
2021/08/27 00:47:15;;;;;;;7.53;3.63;;;;;;;;;;5111341;27;20073;-57
2021/08/27 00:49:41;;;;;;;8.35;3.80;;;;;;;;;;5107386;27;20043;-58
2021/08/27 00:52:08;;;;;;;8.70;4.20;;;;;;;;;;5111948;27;20035;-59
2021/08/27 00:54:34;;;;;;;11.93;3.78;;;;;;;;;;5110061;27;20074;-57
2021/08/27 00:57:00;;;;;;;9.00;4.05;;;;;;;;;;5111510;27;20459;-57
2021/08/27 00:59:26;;;;;;;7.47;3.80;;;;;;;;;;5112619;27;20184;-57
2021/08/27 01:01:53;;;;;;;6.22;3.60;;;;;;;;;;5133926;27;20496;-57
2021/08/27 01:04:19;;;;;;;9.73;4.25;;;;;;;;;;5133069;27;20387;-56
2021/08/27 01:06:54;;;;;;;6.22;3.53;;;;;;;;;;5111373;27;20039;-59
2021/08/27 01:09:37;;;;;;;7.90;3.55;;;;;;;;;;5116280;27;20042;-58
2021/08/27 01:12:07;;;;;;;6.80;3.97;;;;;;;;;;5110540;28;20042;-56
2021/08/27 01:14:38;;;;;;;8.55;4.35;;;;;;;;;;5109792;27;20760;-56
2021/08/27 01:17:15;;;;;;;7.05;3.70;;;;;;;;;;5111297;27;20126;-57
2021/08/27 01:19:46;;;;;;;6.85;3.67;;;;;;;;;;5109759;27;20070;-55
2021/08/27 01:22:39;;;;;;;7.82;4.10;;;;;;;;;;5110491;27;20118;-55
2021/08/27 01:25:05;;;;;;;7.50;3.85;;;;;;;;;;5102854;27;20059;-58
2021/08/27 01:27:31;;;;;;;8.00;3.95;;;;;;;;;;5108700;27;20710;-57
2021/08/27 01:30:03;;;;;;;6.65;3.50;;;;;;;;;;5113692;27;20039;-57
2021/08/27 01:32:41;;;;;;;9.05;4.03;;;;;;;;;;5096994;27;20031;-60
2021/08/27 01:35:08;;;;;;;11.30;4.75;;;;;;;;;;5096105;28;20048;-57
2021/08/27 01:37:34;;;;;;;10.98;4.80;;;;;;;;;;5094986;27;20085;-58
2021/08/27 01:40:00;;;;;;;13.77;4.60;;;;;;;;;;5096183;28;20055;-60
2021/08/27 01:42:27;;;;;;;12.57;4.50;;;;;;;;;;5095890;27;20067;-57
2021/08/27 01:44:57;;;;;;;7.85;4.18;;;;;;;;;;5097707;27;20528;-57
2021/08/27 01:47:25;;;;;;;9.52;4.28;;;;;;;;;;5096411;27;20044;-57
2021/08/27 01:49:51;;;;;;;9.60;4.63;;;;;;;;;;5096122;28;20036;-57
2021/08/27 01:52:18;;;;;;;9.65;4.32;;;;;;;;;;5096430;28;20042;-56
2021/08/27 01:54:45;;;;;;;8.50;4.80;;;;;;;;;;5098606;27;20052;-58
2021/08/27 01:57:10;;;;;;;10.27;5.35;;;;;;;;;;5095471;28;20036;-56
2021/08/27 01:59:39;;;;;;;11.07;4.00;;;;;;;;;;5093641;27;20035;-55
2021/08/27 02:02:06;;;;;;;6.57;3.80;;;;;;;;;;5099970;27;20043;-56
2021/08/27 02:04:33;;;;;;;8.02;3.80;;;;;;;;;;5105381;27;20831;-56
2021/08/27 02:07:00;;;;;;;8.32;4.10;;;;;;;;;;5112011;27;20079;-57
2021/08/27 02:09:26;;;;;;;9.75;4.22;;;;;;;;;;5105164;27;20055;-56
2021/08/27 02:11:52;;;;;;;9.27;4.32;;;;;;;;;;5104305;27;20042;-56
2021/08/27 02:14:18;;;;;;;8.60;4.05;;;;;;;;;;5095335;28;20047;-58
2021/08/27 02:16:44;;;;;;;9.88;4.25;;;;;;;;;;5099739;27;20088;-56
2021/08/27 02:19:10;;;;;;;8.70;4.25;;;;;;;;;;5117834;27;20096;-52
2021/08/27 02:21:40;;;;;;;10.18;4.50;;;;;;;;;;5116957;27;20035;-57
2021/08/27 02:24:10;;;;;;;9.68;4.35;;;;;;;;;;5118339;27;20125;-59
2021/08/27 02:26:37;;;;;;;7.35;4.38;;;;;;;;;;5114459;27;20070;-58
2021/08/27 02:29:03;;;;;;;11.52;5.38;;;;;;;;;;5111648;27;20038;-57
2021/08/27 02:31:30;;;;;;;11.27;4.82;;;;;;;;;;5113832;27;20046;-59
2021/08/27 02:33:56;;;;;;;9.90;4.18;;;;;;;;;;5114004;27;20043;-57
2021/08/27 02:36:23;;;;;;;7.20;4.05;;;;;;;;;;5112903;27;20035;-58
2021/08/27 02:38:49;;;;;;;10.55;4.50;;;;;;;;;;5116103;27;20037;-57
2021/08/27 02:41:15;;;;;;;16.50;4.50;;;;;;;;;;5113146;27;20041;-57
2021/08/27 02:43:40;;;;;;;8.05;4.03;;;;;;;;;;5113808;27;20397;-57
2021/08/27 02:46:06;;;;;;;11.77;4.35;;;;;;;;;;5113396;27;20642;-59
2021/08/27 02:48:33;;;;;;;11.07;4.75;;;;;;;;;;5101230;27;20078;-58
2021/08/27 02:51:13;;;;;;;11.95;4.65;;;;;;;;;;5091180;28;20439;-60
2021/08/27 02:53:40;;;;;;;13.68;5.10;;;;;;;;;;5090700;28;20067;-57
2021/08/27 02:56:07;;;;;;;12.70;5.22;;;;;;;;;;5091421;28;20035;-57
2021/08/27 02:58:34;;;;;;;10.95;5.15;;;;;;;;;;5092189;28;20525;-57
2021/08/27 03:00:59;;;;;;;12.30;4.75;;;;;;;;;;5107519;27;20035;-56
2021/08/27 03:03:30;;;;;;;11.43;5.13;;;;;;;;;;5112088;27;20038;-61
2021/08/27 03:06:10;;;;;;;10.25;4.65;;;;;;;;;;5089343;28;20043;-58
2021/08/27 03:08:38;;;;;;;11.13;5.38;;;;;;;;;;5093680;27;20096;-58
2021/08/27 03:11:08;;;;;;;12.85;4.97;;;;;;;;;;5092211;27;20043;-58
2021/08/27 03:13:39;;;;;;;11.55;5.70;;;;;;;;;;5089709;28;20043;-59
2021/08/27 03:16:08;;;;;;;14.18;5.00;;;;;;;;;;5088504;28;20054;-57
2021/08/27 03:18:51;;;;;;;9.45;5.25;;;;;;;;;;5094279;27;20082;-57
2021/08/27 03:21:29;;;;;;;15.48;5.07;;;;;;;;;;5114722;27;20142;-57
2021/08/27 03:23:57;;;;;;;9.18;4.82;;;;;;;;;;5092483;27;20075;-57
2021/08/27 03:26:24;;;;;;;9.45;4.50;;;;;;;;;;5091609;27;20058;-57
2021/08/27 03:28:57;;;;;;;11.38;4.45;;;;;;;;;;5093767;28;20046;-56
2021/08/27 03:31:24;;;;;;;9.05;5.00;;;;;;;;;;5092253;28;20042;-56
2021/08/27 03:33:50;;;;;;;10.18;5.38;;;;;;;;;;5093734;28;20043;-55
2021/08/27 03:36:16;;;;;;;9.18;5.53;;;;;;;;;;5093330;27;20036;-58
2021/08/27 03:38:42;;;;;;;10.35;4.90;;;;;;;;;;5090993;28;20051;-56
2021/08/27 03:41:08;;;;;;;7.55;2.88;;;;;;;;;;5092401;28;20070;-56
2021/08/27 03:43:38;;;;;;;6.97;3.97;;;;;;;;;;5091770;28;20051;-56
2021/08/27 03:46:04;;;;;;;9.50;3.97;;;;;;;;;;5093143;28;20048;-55
2021/08/27 03:48:30;;;;;;;6.72;3.38;;;;;;;;;;5091294;28;20035;-55
2021/08/27 03:50:56;;;;;;;5.55;2.92;;;;;;;;;;5091321;28;20055;-58
2021/08/27 03:53:22;;;;;;;7.18;3.05;;;;;;;;;;5092606;28;20062;-58
2021/08/27 03:55:51;;;;;;;4.47;2.17;;;;;;;;;;5109297;27;20119;-57
2021/08/27 03:58:20;;;;;;;6.93;2.40;;;;;;;;;;5132197;27;20063;-57
2021/08/27 04:00:46;;;;;;;4.53;2.10;;;;;;;;;;5114746;27;20122;-56
2021/08/27 04:03:12;;;;;;;4.03;1.83;;;;;;;;;;5099021;27;20115;-56
2021/08/27 04:05:55;;;;;;;8.10;2.88;;;;;;;;;;5094053;27;20157;-56
2021/08/27 04:08:21;;;;;;;6.55;3.25;;;;;;;;;;5094051;28;20032;-56
2021/08/27 04:10:47;;;;;;;6.10;3.15;;;;;;;;;;5093763;28;20426;-56
2021/08/27 04:13:13;;;;;;;8.48;2.83;;;;;;;;;;5093388;28;20054;-55
2021/08/27 04:15:39;;;;;;;7.88;2.80;;;;;;;;;;5092716;28;20027;-55
2021/08/27 04:18:05;;;;;;;6.85;2.33;;;;;;;;;;5126075;27;20080;-56
2021/08/27 04:20:31;;;;;;;5.78;2.35;;;;;;;;;;5114924;27;20125;-56
2021/08/27 04:22:57;;;;;;;5.80;2.63;;;;;;;;;;5113023;27;20039;-57
2021/08/27 04:25:23;;;;;;;6.60;3.05;;;;;;;;;;5113459;27;20054;-57
2021/08/27 04:27:49;;;;;;;6.18;2.50;;;;;;;;;;5117284;27;20099;-57
2021/08/27 04:30:14;;;;;;;5.30;2.25;;;;;;;;;;5117659;27;20067;-55
2021/08/27 04:32:40;;;;;;;5.40;2.25;;;;;;;;;;5115148;27;20047;-55
2021/08/27 04:35:06;;;;;;;4.15;1.83;;;;;;;;;;5115900;27;20805;-55
2021/08/27 04:37:32;;;;;;;4.60;2.20;;;;;;;;;;5117297;27;20158;-54
2021/08/27 04:39:58;;;;;;;5.35;2.10;;;;;;;;;;5116923;27;20035;-54
2021/08/27 04:42:23;;;;;;;6.13;2.25;;;;;;;;;;5117511;27;20027;-55
2021/08/27 04:44:49;;;;;;;5.63;2.17;;;;;;;;;;5117060;27;20041;-54
2021/08/27 04:47:15;;;;;;;4.07;2.03;;;;;;;;;;5116105;27;20100;-55
2021/08/27 04:49:41;;;;;;;4.97;2.00;;;;;;;;;;5116698;27;20045;-56
2021/08/27 04:52:07;;;;;;;6.53;2.30;;;;;;;;;;5116857;27;20495;-56
2021/08/27 04:54:33;;;;;;;4.70;2.03;;;;;;;;;;5116789;27;20693;-55
2021/08/27 04:56:59;;;;;;;6.53;2.63;;;;;;;;;;5118304;27;20039;-56
2021/08/27 04:59:24;;;;;;;6.25;2.58;;;;;;;;;;5116171;27;20111;-56
2021/08/27 05:01:51;;;;;;;4.90;2.13;;;;;;;;;;5116803;27;20039;-56
2021/08/27 05:04:16;;;;;;;5.38;2.47;;;;;;;;;;5100192;27;20129;-57
2021/08/27 05:06:42;;;;;;;5.30;2.50;;;;;;;;;;5102038;27;20062;-57
2021/08/27 05:09:08;;;;;;;5.70;2.50;;;;;;;;;;5101930;27;20043;-56
2021/08/27 05:11:34;;;;;;;4.85;2.20;;;;;;;;;;5099816;27;20039;-54
2021/08/27 05:14:00;;;;;;;5.85;2.65;;;;;;;;;;5097762;28;20501;-57
2021/08/27 05:16:26;;;;;;;4.80;2.30;;;;;;;;;;5098349;27;20032;-57
2021/08/27 05:18:51;;;;;;;5.93;2.53;;;;;;;;;;5101462;27;20126;-56
2021/08/27 05:21:17;;;;;;;5.00;2.38;;;;;;;;;;5110167;27;20055;-55
2021/08/27 05:23:43;;;;;;;4.78;2.40;;;;;;;;;;5095033;28;20044;-57
2021/08/27 05:26:09;;;;;;;6.05;2.65;;;;;;;;;;5097560;28;20040;-57
2021/08/27 05:28:35;;;;;;;6.15;2.83;;;;;;;;;;5097441;28;20036;-57
2021/08/27 05:31:01;;;;;;;6.40;2.97;;;;;;;;;;5096628;28;20107;-56
2021/08/27 05:33:27;;;;;;;8.63;2.72;;;;;;;;;;5096073;28;20465;-56
2021/08/27 05:35:52;;;;;;;4.97;2.53;;;;;;;;;;5096882;28;20433;-56
2021/08/27 05:38:18;;;;;;;4.32;2.05;;;;;;;;;;5095754;28;20112;-56
2021/08/27 05:40:44;;;;;;;5.95;2.45;;;;;;;;;;5096218;28;20054;-55
2021/08/27 05:43:10;;;;;;;5.70;2.88;;;;;;;;;;5096030;28;20058;-56
2021/08/27 05:45:36;;;;;;;5.47;2.35;;;;;;;;;;5095514;28;20050;-57
2021/08/27 05:48:01;;;;;;;5.78;2.97;;;;;;;;;;5098434;28;20853;-57
2021/08/27 05:50:27;;;;;;;7.80;2.45;;;;;;;;;;5096078;28;20035;-56
2021/08/27 05:52:53;;;;;;;5.95;2.80;;;;;;;;;;5096762;28;20050;-56
2021/08/27 05:55:19;;;;;;;5.45;2.92;;;;;;;;;;5097350;28;20044;-56
2021/08/27 05:57:45;;;;;;;8.88;3.25;;;;;;;;;;5097502;28;20036;-56
2021/08/27 06:00:11;;;;;;;5.55;2.88;;;;;;;;;;5104086;27;20854;-56
2021/08/27 06:02:37;;;;;;;7.72;3.22;;;;;;;;;;5116948;27;20038;-55
2021/08/27 06:05:02;;;;;;;8.63;3.40;;;;;;;;;;5118870;27;20039;-54
2021/08/27 06:07:28;;;;;;;7.28;3.58;;;;;;;;;;5108455;27;20075;-55
2021/08/27 06:09:54;;;;;;;6.47;3.42;;;;;;;;;;5096262;28;20027;-55
2021/08/27 06:12:20;;;;;;;8.05;3.60;;;;;;;;;;5117241;27;20221;-53
2021/08/27 06:14:47;;;;;;;7.95;3.75;;;;;;;;;;5116850;27;20524;-56
2021/08/27 06:17:12;;;;;;;6.47;3.40;;;;;;;;;;5113370;27;20039;-56
2021/08/27 06:19:38;;;;;;;7.20;3.38;;;;;;;;;;5117365;27;20042;-56
2021/08/27 06:22:04;;;;;;;6.22;3.80;;;;;;;;;;5115509;27;20786;-54
2021/08/27 06:24:30;;;;;;;8.15;4.35;;;;;;;;;;5117072;27;20064;-57
2021/08/27 06:26:56;;;;;;;7.40;3.80;;;;;;;;;;5118270;27;20046;-57
2021/08/27 06:29:22;;;;;;;7.43;3.75;;;;;;;;;;5118305;27;20054;-56
2021/08/27 06:31:48;;;;;;;10.60;4.57;;;;;;;;;;5120056;27;20028;-56
2021/08/27 06:34:14;;;;;;;8.63;3.75;;;;;;;;;;5117520;27;20103;-56
2021/08/27 06:36:39;;;;;;;9.10;4.65;;;;;;;;;;5115494;27;20497;-57
2021/08/27 06:39:05;;;;;;;7.35;4.03;;;;;;;;;;5105395;27;20056;-56
2021/08/27 06:41:31;;;;;;;8.38;4.30;;;;;;;;;;5096553;28;20135;-56
2021/08/27 06:43:57;;;;;;;8.57;4.45;;;;;;;;;;5092717;27;20118;-56
2021/08/27 06:46:24;;;;;;;11.73;4.68;;;;;;;;;;5095854;27;20071;-57
2021/08/27 06:48:50;;;;;;;8.73;4.68;;;;;;;;;;5096322;28;20046;-57
2021/08/27 06:51:16;;;;;;;8.63;4.60;;;;;;;;;;5096712;28;20043;-57
2021/08/27 06:53:42;;;;;;;10.02;4.65;;;;;;;;;;5094806;28;20051;-57
2021/08/27 06:56:08;;;;;;;10.45;5.03;;;;;;;;;;5095119;28;21010;-56
2021/08/27 06:58:34;;;;;;;10.73;4.72;;;;;;;;;;5094664;28;20036;-57
2021/08/27 07:01:00;;;;;;;9.57;5.50;;;;;;;;;;5096234;28;20084;-56
2021/08/27 07:03:27;;;;;;;8.68;4.75;;;;;;;;;;5093499;28;20040;-56
2021/08/27 07:05:52;;;;;;;8.27;4.47;;;;;;;;;;5096914;28;20065;-57
2021/08/27 07:08:19;;;;;;;8.52;4.85;;;;;;;;;;5096325;28;20781;-56
2021/08/27 07:10:44;;;;;;;7.88;4.70;;;;;;;;;;5097073;27;20043;-57
2021/08/27 07:13:11;;;;;;;8.05;4.88;;;;;;;;;;5097521;28;20042;-57
2021/08/27 07:15:37;;;;;;;10.02;4.93;;;;;;;;;;5094519;28;20036;-56
2021/08/27 07:18:03;;;;;;;9.82;5.30;;;;;;;;;;5096211;27;20530;-57
2021/08/27 07:20:29;;;;;;;12.75;4.50;;;;;;;;;;5096121;28;20047;-56
2021/08/27 07:22:55;;;;;;;8.65;4.72;;;;;;;;;;5095016;28;20036;-56
2021/08/27 07:25:21;;;;;;;8.50;5.00;;;;;;;;;;5094993;28;20126;-57
2021/08/27 07:27:48;;;;;;;10.80;4.68;;;;;;;;;;5095128;28;20039;-54
2021/08/27 07:30:15;;;;;;;12.98;4.93;;;;;;;;;;5096462;28;21342;-56
2021/08/27 07:32:41;;;;;;;12.88;5.05;;;;;;;;;;5094840;28;20039;-57
2021/08/27 07:35:07;;;;;;;10.57;4.95;;;;;;;;;;5094971;28;20163;-56
2021/08/27 07:37:33;;;;;;;8.95;4.55;;;;;;;;;;5094713;28;20089;-56
2021/08/27 07:39:59;;;;;;;12.27;4.93;;;;;;;;;;5095750;28;20111;-56
2021/08/27 07:42:25;;;;;;;9.63;4.80;;;;;;;;;;5094986;28;20120;-57
2021/08/27 07:44:51;;;;;;;8.40;4.95;;;;;;;;;;5094975;28;20049;-55
2021/08/27 07:47:17;;;;;;;10.15;5.40;;;;;;;;;;5096638;28;20439;-56
2021/08/27 07:49:43;;;;;;;8.70;5.28;;;;;;;;;;5109378;27;20412;-56
2021/08/27 07:52:08;;;;;;;9.75;4.70;;;;;;;;;;5096225;28;20544;-57
2021/08/27 07:54:34;;;;;;;10.70;4.47;;;;;;;;;;5095191;27;20726;-57
2021/08/27 07:57:00;;;;;;;8.90;4.72;;;;;;;;;;5097106;27;20038;-54
2021/08/27 07:59:26;;;;;;;9.60;4.78;;;;;;;;;;5105651;27;20146;-56
2021/08/27 08:01:52;;;;;;;9.93;5.13;;;;;;;;;;5096757;28;20389;-56
2021/08/27 08:04:18;;;;;;;9.85;4.63;;;;;;;;;;5094068;28;20063;-56
2021/08/27 08:06:44;;;;;;;11.63;4.97;;;;;;;;;;5093559;28;20044;-56
2021/08/27 08:09:10;;;;;;;8.50;4.55;;;;;;;;;;5093931;28;20040;-56
2021/08/27 08:11:36;;;;;;;10.30;4.68;;;;;;;;;;5085463;28;20507;-56
2021/08/27 08:14:02;;;;;;;11.20;4.53;;;;;;;;;;5094571;28;20158;-56
2021/08/27 08:16:28;;;;;;;8.68;4.20;;;;;;;;;;5094545;28;20035;-57
2021/08/27 08:18:54;;;;;;;8.55;4.32;;;;;;;;;;5096859;27;20043;-56
2021/08/27 08:21:23;;;;;;;7.78;4.20;;;;;;;;;;5093917;27;20558;-57
2021/08/27 08:23:52;;;;;;;9.38;4.93;;;;;;;;;;5092882;28;20074;-56
2021/08/27 08:26:19;;;;;;;9.43;4.70;;;;;;;;;;5095234;28;20042;-56
2021/08/27 08:28:46;;;;;;;11.70;5.00;;;;;;;;;;5103783;27;20100;-56
2021/08/27 08:31:17;;;;;;;9.93;4.63;;;;;;;;;;5095289;28;20039;-56
2021/08/27 08:33:43;;;;;;;7.95;4.63;;;;;;;;;;5093059;28;20168;-55
2021/08/27 08:36:09;;;;;;;9.20;5.05;;;;;;;;;;5097000;28;21000;-55
2021/08/27 08:38:34;;;;;;;9.77;5.35;;;;;;;;;;5099122;28;20051;-53
2021/08/27 08:41:02;;;;;;;9.23;4.78;;;;;;;;;;5099595;28;20036;-57
2021/08/27 08:43:29;;;;;;;13.40;4.40;;;;;;;;;;5097214;28;20421;-57
2021/08/27 08:45:55;;;;;;;8.68;4.40;;;;;;;;;;5097814;28;20079;-56
2021/08/27 08:48:21;;;;;;;8.25;4.43;;;;;;;;;;5097645;28;20114;-57
2021/08/27 08:50:48;;;;;;;8.60;4.47;;;;;;;;;;5098443;28;20234;-56
2021/08/27 08:56:09;;;;;;;8.15;3.90;;;;;;;;;;5894830;22;20229;31
2021/08/27 08:58:36;;;;;;;7.45;4.00;;;;;;;;;;4940237;23;20077;-54
2021/08/27 09:01:02;;;;;;;8.52;4.15;;;;;;;;;;4976392;28;20521;-54
2021/08/27 09:03:27;;;;;;;8.57;4.32;;;;;;;;;;4987805;28;20396;-54
2021/08/27 09:05:53;;;;;;;7.38;4.13;;;;;;;;;;5000102;28;20279;-54
2021/08/27 09:08:37;;;;;;;11.88;4.32;;;;;;;;;;4997548;28;20045;-57
2021/08/27 09:11:15;;;;;;;6.80;3.90;;;;;;;;;;4999724;28;20058;-54
2021/08/27 09:13:41;;;;;;;10.40;4.53;;;;;;;;;;4998584;28;20057;-55
2021/08/27 09:16:08;;;;;;;9.23;4.50;;;;;;;;;;4999048;28;20042;-54
2021/08/27 09:18:37;;;;;;;7.35;4.40;;;;;;;;;;4998346;28;20058;-55
2021/08/27 09:21:23;;;;;;;9.52;4.10;;;;;;;;;;4999184;28;20731;-55
2021/08/27 09:23:49;;;;;;;10.75;4.13;;;;;;;;;;4997571;28;20590;-56
2021/08/27 09:26:33;;;;;;;9.07;4.50;;;;;;;;;;5000039;28;20100;-57
2021/08/27 09:28:59;;;;;;;7.82;4.30;;;;;;;;;;4989366;28;20387;-54
2021/08/27 09:31:35;;;;;;;7.75;4.38;;;;;;;;;;4999236;28;20042;-55
2021/08/27 09:34:01;;;;;;;7.22;3.72;;;;;;;;;;4998962;28;20050;-56
2021/08/27 09:39:33;;;;;;;9.88;4.30;;;;;;;;;;4997783;28;20041;-54
2021/08/27 09:41:59;;;;;;;7.13;3.70;;;;;;;;;;4997896;28;20050;-58
2021/08/27 09:44:25;;;;;;;5.90;3.45;;;;;;;;;;4996974;28;20083;-60
2021/08/27 09:46:51;;;;;;;8.68;4.10;;;;;;;;;;4997737;28;20469;-56
2021/08/27 09:49:24;;;;;;;9.40;3.85;;;;;;;;;;4999063;28;20042;-56
2021/08/27 09:51:49;;;;;;;8.65;4.07;;;;;;;;;;4997429;28;22049;-59
2021/08/27 09:54:23;;;;;;;7.63;3.70;;;;;;;;;;4997722;28;20104;-59
2021/08/27 09:56:51;;;;;;;8.38;3.70;;;;;;;;;;4971378;28;20510;-57
2021/08/27 09:59:17;;;;;;;6.57;3.83;;;;;;;;;;4975742;28;20042;-57
2021/08/27 10:01:50;;;;;;;8.23;3.70;;;;;;;;;;4981101;28;20054;-56
2021/08/27 10:04:15;;;;;;;;;;;;;;;;;;4980576;28;20090;-55
2021/08/27 10:06:41;;;;;;;7.53;3.67;;;;;;;;;;4980756;28;20395;-56
2021/08/27 10:09:07;;;;;;;7.10;3.58;;;;;;;;;;4981061;28;20117;-57
2021/08/27 10:11:33;;;;;;;9.07;3.85;;;;;;;;;;4979609;28;20034;-57
2021/08/27 10:13:59;;;;;;;8.48;4.07;;;;;;;;;;4979527;28;20664;-56
2021/08/27 10:16:25;;;;;;;6.95;3.97;;;;;;;;;;4979415;28;20035;-56
2021/08/27 10:18:51;;;;;;;8.82;3.88;;;;;;;;;;4978041;28;20054;-56
2021/08/27 10:21:17;;;;;;;6.65;3.38;;;;;;;;;;4979801;28;20035;-55
2021/08/27 10:23:44;;;;;;;7.80;3.53;;;;;;;;;;4978467;28;20523;-56
2021/08/27 10:26:18;;;;;;;8.88;4.32;;;;;;;;;;4979838;28;20086;-56
2021/08/27 10:28:45;;;;;;;8.30;4.10;;;;;;;;;;4974403;28;20388;-52
2021/08/27 10:31:10;;;;;;;6.18;3.05;;;;;;;;;;4980964;28;20034;-55
2021/08/27 10:33:39;;;;;;;6.32;3.78;;;;;;;;;;4976563;28;20674;-56
2021/08/27 10:36:09;;;;;;;6.45;3.45;;;;;;;;;;4980520;28;20042;-57
2021/08/27 10:41:41;;;;;;;5.60;3.17;;;;;;;;;;4978445;28;20570;-57
2021/08/27 10:44:11;;;;;;;6.90;4.03;;;;;;;;;;4978290;28;20322;-56
2021/08/27 10:46:46;;;;;;;7.35;3.92;;;;;;;;;;4978831;28;20058;-56
2021/08/27 10:49:12;;;;;;;6.72;3.90;;;;;;;;;;4979579;28;20046;-55
2021/08/27 10:51:39;;;;;;;6.45;3.60;;;;;;;;;;4980379;28;20043;-56
2021/08/27 10:54:06;;;;;;;10.90;4.05;;;;;;;;;;4978265;28;20495;-55
2021/08/27 10:56:51;;;;;;;8.52;4.15;;;;;;;;;;4978308;28;20045;-56
2021/08/27 10:59:17;;;;;;;6.72;3.72;;;;;;;;;;4959523;28;20522;-55
2021/08/27 11:01:47;;;;;;;7.10;3.80;;;;;;;;;;4978537;28;20046;-54
2021/08/27 11:04:24;;;;;;;7.38;3.13;;;;;;;;;;4979809;28;20049;-59
2021/08/27 11:06:54;;;;;;;6.03;2.47;;;;;;;;;;4977877;28;21614;-59
2021/08/27 11:09:21;;;;;;;6.93;3.92;;;;;;;;;;4964591;28;20490;-56
2021/08/27 11:11:47;;;;;;;5.75;2.97;;;;;;;;;;4979233;28;20577;-56
2021/08/27 11:14:14;;;;;;;10.50;5.32;;;;;;;;;;4979292;28;20089;-58
2021/08/27 11:16:40;;;;;;;7.82;4.55;;;;;;;;;;4977828;28;20074;-55
2021/08/27 11:19:24;;;;;;;7.85;4.15;;;;;;;;;;4978588;28;20180;-56
2021/08/27 11:21:55;;;;;;;7.45;4.18;;;;;;;;;;4977084;28;20118;-56
2021/08/27 11:24:25;;;;;;;12.65;5.95;;;;;;;;;;4978156;28;20185;-56
2021/08/27 11:26:50;;;;;;;10.13;5.75;;;;;;;;;;4978817;28;20042;-57
2021/08/27 11:29:29;;;;;;;10.20;5.18;;;;;;;;;;4978373;28;20030;-56
2021/08/27 11:31:55;;;;;;;10.95;5.43;;;;;;;;;;4977530;28;20053;-56
2021/08/27 11:34:24;;;;;;;10.75;5.97;;;;;;;;;;4978302;28;20118;-56
2021/08/27 11:36:50;;;;;;;9.27;5.45;;;;;;;;;;4978389;28;20141;-53
2021/08/27 11:39:16;;;;;;;10.40;5.80;;;;;;;;;;4977770;28;20576;-56
2021/08/27 11:41:42;;;;;;;10.25;5.47;;;;;;;;;;4977621;28;20042;-56
2021/08/27 11:44:10;;;;;;;10.15;5.20;;;;;;;;;;4977565;28;20828;-56
2021/08/27 11:46:36;;;;;;;12.98;5.65;;;;;;;;;;4978198;28;20035;-55
2021/08/27 11:49:14;;;;;;;9.80;5.50;;;;;;;;;;4977714;28;20042;-56
2021/08/27 11:51:43;;;;;;;8.48;4.97;;;;;;;;;;4976865;28;20062;-56
2021/08/27 11:54:19;;;;;;;8.82;5.07;;;;;;;;;;4978210;28;20121;-56
2021/08/27 11:56:48;;;;;;;9.10;5.05;;;;;;;;;;4977950;28;20097;-56
2021/08/27 11:59:19;;;;;;;12.52;5.22;;;;;;;;;;4976404;28;20054;-56
2021/08/27 12:01:45;;;;;;;14.25;5.50;;;;;;;;;;4976290;28;20048;-56
2021/08/27 12:04:21;;;;;;;9.52;5.45;;;;;;;;;;4978100;28;20046;-56
2021/08/27 12:06:47;;;;;;;9.20;5.50;;;;;;;;;;4977233;28;20060;-56
2021/08/27 12:09:13;;;;;;;10.60;5.78;;;;;;;;;;4977306;28;20038;-56
2021/08/27 12:11:42;;;;;;;9.15;5.55;;;;;;;;;;4975530;28;20094;-54
2021/08/27 12:14:07;;;;;;;9.25;5.55;;;;;;;;;;4977298;28;20114;-56
2021/08/27 12:16:33;;;;;;;10.63;5.45;;;;;;;;;;4974638;28;20129;-61
2021/08/27 12:18:59;;;;;;;9.77;5.90;;;;;;;;;;4977332;28;20117;-56
2021/08/27 12:21:27;;;;;;;11.02;5.90;;;;;;;;;;4975954;28;20396;-55
2021/08/27 12:24:02;;;;;;;11.35;5.43;;;;;;;;;;4977071;28;20053;-56
2021/08/27 12:26:29;;;;;;;10.35;5.72;;;;;;;;;;4973229;28;20050;-56
2021/08/27 12:28:56;;;;;;;8.63;4.97;;;;;;;;;;4970789;28;20042;-56
2021/08/27 12:31:22;;;;;;;10.00;5.13;;;;;;;;;;4969104;28;20042;-55
2021/08/27 12:33:49;;;;;;;11.35;5.28;;;;;;;;;;4968202;28;20050;-56
2021/08/27 12:36:15;;;;;;;12.23;5.38;;;;;;;;;;4950856;28;20458;-56
2021/08/27 12:38:41;;;;;;;9.13;5.45;;;;;;;;;;4969443;28;20050;-55
2021/08/27 12:44:11;;;;;;;11.63;5.57;;;;;;;;;;4968093;28;20141;-55
2021/08/27 12:46:39;;;;;;;10.88;6.15;;;;;;;;;;4968833;28;20046;-56
2021/08/27 12:49:14;;;;;;;17.00;6.20;;;;;;;;;;4967976;28;20049;-56
2021/08/27 12:51:41;;;;;;;13.75;5.88;;;;;;;;;;4969172;28;20077;-53
2021/08/27 12:54:07;;;;;;;12.85;5.95;;;;;;;;;;4971122;28;20583;-54
2021/08/27 12:56:33;;;;;;;13.02;6.18;;;;;;;;;;4971067;28;20058;-53
2021/08/27 12:59:13;;;;;;;11.82;5.18;;;;;;;;;;4988309;28;20050;-54
2021/08/27 13:01:39;;;;;;;11.23;5.68;;;;;;;;;;4983254;28;20056;-55
2021/08/27 13:04:04;;;;;;;11.18;5.13;;;;;;;;;;4990593;28;20692;-54
2021/08/27 13:06:37;;;;;;;10.02;5.22;;;;;;;;;;4988970;28;20497;-54
2021/08/27 13:09:07;;;;;;;12.50;5.07;;;;;;;;;;4991500;28;20037;-56
2021/08/27 13:11:59;;;;;;;8.85;5.18;;;;;;;;;;4989333;28;20049;-56
2021/08/27 13:14:27;;;;;;;15.05;6.50;;;;;;;;;;4986086;28;20052;-55
2021/08/27 13:17:04;;;;;;;15.35;6.85;;;;;;;;;;4988820;28;20037;-54
2021/08/27 13:19:45;;;;;;;9.70;5.40;;;;;;;;;;4989786;28;20922;-56
2021/08/27 13:22:16;;;;;;;13.38;5.75;;;;;;;;;;4992692;28;20038;-54
2021/08/27 13:24:42;;;;;;;11.77;5.63;;;;;;;;;;4993561;28;20220;-53
2021/08/27 13:27:08;;;;;;;11.05;5.28;;;;;;;;;;4993365;28;20604;-56
2021/08/27 13:29:34;;;;;;;15.00;5.22;;;;;;;;;;4992658;28;20042;-55
2021/08/27 13:32:00;;;;;;;10.90;5.50;;;;;;;;;;4991950;28;21714;-54
2021/08/27 13:34:26;;;;;;;11.82;4.88;;;;;;;;;;4993008;28;20333;-54
2021/08/27 13:36:51;;;;;;;12.00;4.95;;;;;;;;;;4989003;28;20112;-54
2021/08/27 13:39:17;;;;;;;14.63;6.70;;;;;;;;;;4991969;28;20054;-52
2021/08/27 13:41:44;;;;;;;11.82;5.93;;;;;;;;;;4991606;28;20482;-56
2021/08/27 13:44:10;;;;;;;9.50;4.90;;;;;;;;;;4993339;28;20038;-56
2021/08/27 13:46:37;;;;;;;11.32;5.10;;;;;;;;;;4991282;28;20053;-56
2021/08/27 13:55:09;;;;;;;9.57;5.32;;;;;;;;;;4993071;28;20212;-56
2021/08/27 13:57:35;;;;;;;9.65;4.75;;;;;;;;;;4992185;28;20222;-55
2021/08/27 14:00:01;;;;;;;9.13;5.05;;;;;;;;;;4993456;28;20539;-56
2021/08/27 14:02:27;;;;;;;11.55;5.35;;;;;;;;;;4990162;28;20081;-56
2021/08/27 14:04:52;;;;;;;9.50;5.68;;;;;;;;;;4994381;28;20034;-56
2021/08/27 14:07:19;;;;;;;10.02;5.25;;;;;;;;;;4994203;28;20038;-55
2021/08/27 14:09:44;;;;;;;9.45;4.93;;;;;;;;;;4991989;28;20056;-55
2021/08/27 14:12:10;;;;;;;10.60;4.93;;;;;;;;;;4991935;28;20727;-53
2021/08/27 14:14:36;;;;;;;10.57;5.15;;;;;;;;;;4990245;28;20050;-56
2021/08/27 14:17:02;;;;;;;12.27;5.35;;;;;;;;;;4991754;28;20269;-56
2021/08/27 14:19:28;;;;;;;9.35;5.55;;;;;;;;;;4991185;28;20049;-53
2021/08/27 14:21:53;;;;;;;10.55;5.60;;;;;;;;;;4992166;28;21668;-55
2021/08/27 14:24:19;;;;;;;10.52;5.38;;;;;;;;;;4991546;28;20034;-55
2021/08/27 14:26:45;;;;;;;10.25;5.22;;;;;;;;;;4975577;28;20042;-56
2021/08/27 14:29:11;;;;;;;10.15;5.22;;;;;;;;;;4993096;28;20045;-53
2021/08/27 14:31:38;;;;;;;12.50;5.82;;;;;;;;;;4990319;28;20080;-56
2021/08/27 14:34:04;;;;;;;8.60;5.25;;;;;;;;;;4992432;28;20058;-56
2021/08/27 14:36:33;;;;;;;11.63;5.32;;;;;;;;;;4990043;28;20093;-55
2021/08/27 14:38:59;;;;;;;9.70;5.28;;;;;;;;;;4992831;28;20046;-54
2021/08/27 14:41:25;;;;;;;11.13;4.95;;;;;;;;;;4991468;28;20076;-55
2021/08/27 14:43:51;;;;;;;9.52;5.22;;;;;;;;;;4990670;28;20417;-54
2021/08/27 14:46:16;;;;;;;11.48;5.38;;;;;;;;;;4992445;28;20094;-55
2021/08/27 14:48:42;;;;;;;11.77;5.43;;;;;;;;;;4991145;28;20061;-55
2021/08/27 14:57:14;;;;;;;9.70;5.25;;;;;;;;;;4990421;28;20051;-54
2021/08/27 14:59:40;;;;;;;12.85;5.63;;;;;;;;;;4990930;28;20169;-54
2021/08/27 15:02:06;;;;;;;13.55;5.93;;;;;;;;;;4990477;28;20519;-55
2021/08/27 15:04:32;;;;;;;14.02;5.85;;;;;;;;;;4989859;28;21927;-54
2021/08/27 15:06:58;;;;;;;9.85;5.28;;;;;;;;;;4991102;28;20157;-54
2021/08/27 15:09:26;;;;;;;12.13;5.57;;;;;;;;;;4991015;28;20048;-54
2021/08/27 15:11:53;;;;;;;11.13;5.22;;;;;;;;;;4989938;28;20572;-55
2021/08/27 15:14:19;;;;;;;10.18;5.25;;;;;;;;;;4991334;28;21040;-55
2021/08/27 15:16:45;;;;;;;12.63;5.65;;;;;;;;;;4990348;28;20339;-55